createdAt,value
2023-06-10T00:01:59.650Z,17.13
2023-06-10T00:04:29.652Z,16.97
2023-06-10T00:06:59.297Z,17.05
2023-06-10T00:09:28.102Z,17.07
2023-06-10T00:12:00.994Z,17.04
2023-06-10T00:14:29.887Z,16.98
2023-06-10T00:17:03.025Z,16.96
2023-06-10T00:19:32.704Z,16.99
2023-06-10T00:22:10.689Z,16.96
2023-06-10T00:24:40.038Z,16.87
2023-06-10T00:27:10.058Z,16.99
2023-06-10T00:29:43.809Z,16.86
2023-06-10T00:32:13.833Z,16.90
2023-06-10T00:34:42.669Z,16.86
2023-06-10T00:37:11.759Z,16.76
2023-06-10T00:39:41.145Z,16.85
2023-06-10T00:42:12.586Z,16.78
2023-06-10T00:44:45.050Z,16.81
2023-06-10T00:47:14.748Z,16.73
2023-06-10T00:49:44.254Z,16.81
2023-06-10T00:52:17.626Z,16.67
2023-06-10T00:54:49.864Z,16.79
2023-06-10T00:57:20.028Z,16.70
2023-06-10T00:59:50.598Z,16.58
2023-06-10T01:02:19.856Z,16.67
2023-06-10T01:04:50.501Z,16.61
2023-06-10T01:08:02.196Z,16.49
2023-06-10T01:10:42.292Z,16.65
2023-06-10T01:13:15.539Z,16.41
2023-06-10T01:15:42.946Z,16.44
2023-06-10T01:18:16.114Z,16.48
2023-06-10T01:20:45.173Z,16.36
2023-06-10T01:23:13.892Z,16.44
2023-06-10T01:26:04.155Z,16.32
2023-06-10T01:28:46.912Z,16.35
2023-06-10T01:31:22.706Z,16.46
2023-06-10T01:33:55.161Z,16.33
2023-06-10T01:36:26.525Z,16.39
2023-06-10T01:38:58.744Z,16.29
2023-06-10T01:41:28.066Z,16.29
2023-06-10T01:43:57.783Z,16.15
2023-06-10T01:46:27.244Z,16.09
2023-06-10T01:48:57.906Z,16.14
2023-06-10T01:51:27.465Z,16.21
2023-06-10T01:53:57.130Z,16.06
2023-06-10T01:56:26.555Z,16.09
2023-06-10T01:59:00.560Z,15.93
2023-06-10T02:01:39.400Z,15.96
2023-06-10T02:04:10.307Z,15.90
2023-06-10T02:06:38.821Z,15.99
2023-06-10T02:09:06.154Z,15.81
2023-06-10T02:11:33.320Z,15.85
2023-06-10T02:14:00.450Z,15.75
2023-06-10T02:16:28.023Z,15.72
2023-06-10T02:18:56.175Z,15.76
2023-06-10T02:21:23.570Z,15.73
2023-06-10T02:23:50.705Z,15.72
2023-06-10T02:26:18.064Z,15.52
2023-06-10T02:28:45.258Z,15.52
2023-06-10T02:31:14.473Z,15.58
2023-06-10T02:33:41.739Z,15.67
2023-06-10T02:36:14.085Z,15.54
2023-06-10T02:38:41.834Z,15.58
2023-06-10T02:41:09.469Z,15.51
2023-06-10T02:43:37.006Z,15.47
2023-06-10T02:46:04.401Z,15.57
2023-06-10T02:48:32.362Z,15.49
2023-06-10T02:50:59.792Z,15.47
2023-06-10T02:53:35.537Z,15.40
2023-06-10T02:56:08.246Z,15.46
2023-06-10T02:58:36.572Z,15.48
2023-06-10T03:01:04.693Z,15.40
2023-06-10T03:03:43.724Z,15.44
2023-06-10T03:06:14.579Z,15.44
2023-06-10T03:08:42.321Z,15.36
2023-06-10T03:11:14.689Z,15.40
2023-06-10T03:13:42.269Z,15.43
2023-06-10T03:16:13.540Z,15.29
2023-06-10T03:18:42.202Z,15.37
2023-06-10T03:21:10.256Z,15.33
2023-06-10T03:23:39.017Z,15.33
2023-06-10T03:26:07.386Z,15.37
2023-06-10T03:28:36.241Z,15.36
2023-06-10T03:31:03.722Z,15.41
2023-06-10T03:33:33.537Z,15.47
2023-06-10T03:36:00.976Z,15.51
2023-06-10T03:38:29.061Z,15.62
2023-06-10T03:40:56.600Z,15.69
2023-06-10T03:43:23.699Z,15.57
2023-06-10T03:45:54.586Z,15.77
2023-06-10T03:48:22.157Z,15.67
2023-06-10T03:50:54.350Z,15.96
2023-06-10T03:53:31.303Z,15.82
2023-06-10T03:56:01.444Z,15.95
2023-06-10T03:58:39.900Z,16.27
2023-06-10T04:01:11.722Z,15.97
2023-06-10T04:03:50.062Z,16.38
2023-06-10T04:06:19.559Z,16.35
2023-06-10T04:08:51.880Z,16.71
2023-06-10T04:11:30.311Z,16.40
2023-06-10T04:14:03.285Z,16.31
2023-06-10T04:16:36.148Z,16.46
2023-06-10T04:19:07.032Z,16.57
2023-06-10T04:21:37.719Z,16.79
2023-06-10T04:24:09.561Z,16.71
2023-06-10T04:26:51.800Z,16.97
2023-06-10T04:29:27.053Z,17.20
2023-06-10T04:32:03.479Z,16.69
2023-06-10T04:34:38.091Z,16.95
2023-06-10T04:37:10.689Z,17.24
2023-06-10T04:39:43.162Z,16.90
2023-06-10T04:42:23.845Z,16.96
2023-06-10T04:44:56.206Z,17.20
2023-06-10T04:47:26.157Z,17.55
2023-06-10T04:49:55.512Z,17.16
2023-06-10T04:52:26.051Z,17.16
2023-06-10T04:54:55.908Z,17.11
2023-06-10T04:57:24.803Z,16.99
2023-06-10T04:59:57.829Z,17.25
2023-06-10T05:02:30.847Z,17.29
2023-06-10T05:05:04.631Z,17.55
2023-06-10T05:07:41.626Z,17.10
2023-06-10T05:10:16.776Z,17.34
2023-06-10T05:12:44.186Z,17.54
2023-06-10T05:15:12.136Z,17.64
2023-06-10T05:17:39.876Z,17.77
2023-06-10T05:20:07.621Z,17.61
2023-06-10T05:22:35.586Z,17.82
2023-06-10T05:25:02.714Z,17.34
2023-06-10T05:27:30.132Z,17.54
2023-06-10T05:29:57.625Z,17.74
2023-06-10T05:32:25.188Z,18.36
2023-06-10T05:34:52.322Z,18.08
2023-06-10T05:37:19.665Z,18.54
2023-06-10T05:39:46.941Z,17.59
2023-06-10T05:42:14.403Z,18.27
2023-06-10T05:44:51.474Z,18.37
2023-06-10T05:47:24.523Z,18.75
2023-06-10T05:49:57.016Z,17.85
2023-06-10T05:52:42.192Z,18.12
2023-06-10T05:55:18.231Z,18.42
2023-06-10T05:57:51.736Z,18.56
2023-06-10T06:00:24.661Z,18.42
2023-06-10T06:02:56.285Z,18.47
2023-06-10T06:05:26.544Z,18.47
2023-06-10T06:08:19.978Z,18.63
2023-06-10T06:11:00.580Z,18.11
2023-06-10T06:13:33.956Z,18.09
2023-06-10T06:16:03.245Z,18.51
2023-06-10T06:18:31.744Z,18.99
2023-06-10T06:21:02.030Z,19.16
2023-06-10T06:23:31.603Z,19.55
2023-06-10T06:26:00.268Z,19.39
2023-06-10T06:28:31.053Z,19.29
2023-06-10T06:31:02.341Z,18.78
2023-06-10T06:33:35.442Z,19.74
2023-06-10T06:36:04.383Z,18.67
2023-06-10T06:38:43.059Z,18.97
2023-06-10T06:41:16.202Z,19.09
2023-06-10T06:43:48.934Z,18.58
2023-06-10T06:46:47.351Z,19.45
2023-06-10T06:49:23.564Z,19.53
2023-06-10T06:51:55.631Z,19.31
2023-06-10T06:54:25.377Z,19.04
2023-06-10T06:56:54.852Z,19.83
2023-06-10T06:59:27.995Z,19.58
2023-06-10T07:01:58.819Z,19.64
2023-06-10T07:04:27.723Z,19.44
2023-06-10T07:07:01.882Z,19.56
2023-06-10T07:09:32.943Z,19.51
2023-06-10T07:12:04.975Z,19.61
2023-06-10T07:14:38.480Z,20.13
2023-06-10T07:17:07.522Z,20.86
2023-06-10T07:19:40.487Z,20.07
2023-06-10T07:22:23.655Z,19.94
2023-06-10T07:24:58.135Z,20.24
2023-06-10T07:27:30.380Z,20.08
2023-06-10T07:30:10.769Z,20.05
2023-06-10T07:32:42.851Z,20.89
2023-06-10T07:35:13.412Z,19.91
2023-06-10T07:37:42.430Z,20.24
2023-06-10T07:40:12.449Z,19.95
2023-06-10T07:42:47.611Z,20.21
2023-06-10T07:45:23.497Z,20.68
2023-06-10T07:47:54.958Z,20.42
2023-06-10T07:50:28.225Z,20.79
2023-06-10T07:53:18.351Z,20.82
2023-06-10T07:55:47.385Z,21.11
2023-06-10T07:58:31.274Z,21.17
2023-06-10T08:01:10.778Z,21.11
2023-06-10T08:03:42.803Z,20.93
2023-06-10T08:06:15.587Z,20.67
2023-06-10T08:08:45.566Z,20.68
2023-06-10T08:11:19.093Z,21.41
2023-06-10T08:13:48.148Z,21.49
2023-06-10T08:16:20.431Z,21.61
2023-06-10T08:18:49.234Z,21.08
2023-06-10T08:21:27.422Z,20.59
2023-06-10T08:24:19.369Z,20.59
2023-06-10T08:26:54.310Z,20.57
2023-06-10T08:29:27.141Z,20.99
2023-06-10T08:31:58.637Z,21.22
2023-06-10T08:34:31.084Z,20.86
2023-06-10T08:37:12.776Z,20.88
2023-06-10T08:39:44.494Z,21.23
2023-06-10T08:42:22.126Z,20.67
2023-06-10T08:44:58.056Z,20.53
2023-06-10T08:47:36.745Z,21.09
2023-06-10T08:50:07.778Z,21.50
2023-06-10T08:52:40.160Z,21.34
2023-06-10T08:55:21.692Z,21.95
2023-06-10T09:00:24.534Z,21.53
2023-06-10T09:02:53.870Z,21.94
2023-06-10T09:05:26.213Z,21.41
2023-06-10T09:08:18.488Z,21.02
2023-06-10T09:10:52.666Z,21.15
2023-06-10T09:13:24.903Z,21.87
2023-06-10T09:15:53.701Z,22.04
2023-06-10T09:18:24.619Z,21.81
2023-06-10T09:21:06.007Z,21.75
2023-06-10T09:23:47.422Z,21.39
2023-06-10T09:26:20.928Z,21.25
2023-06-10T09:29:17.616Z,21.91
2023-06-10T09:31:55.717Z,21.85
2023-06-10T09:34:27.870Z,20.69
2023-06-10T09:37:02.482Z,21.05
2023-06-10T09:39:32.473Z,22.11
2023-06-10T09:42:19.660Z,21.77
2023-06-10T09:44:55.029Z,21.34
2023-06-10T09:47:25.492Z,22.43
2023-06-10T09:49:59.725Z,22.05
2023-06-10T09:52:42.682Z,22.60
2023-06-10T09:55:19.912Z,21.61
2023-06-10T09:57:54.644Z,21.78
2023-06-10T10:00:25.324Z,21.91
2023-06-10T10:02:56.481Z,21.23
2023-06-10T10:05:29.091Z,21.30
2023-06-10T10:08:00.690Z,21.25
2023-06-10T10:10:32.913Z,21.58
2023-06-10T10:13:09.734Z,21.24
2023-06-10T10:15:43.363Z,22.56
2023-06-10T10:18:20.417Z,21.21
2023-06-10T10:20:56.735Z,21.38
2023-06-10T10:23:39.946Z,21.68
2023-06-10T10:26:49.091Z,22.44
2023-06-10T10:29:45.773Z,20.92
2023-06-10T10:32:25.345Z,21.01
2023-06-10T10:35:26.831Z,22.29
2023-06-10T10:38:13.745Z,22.07
2023-06-10T10:40:53.118Z,21.33
2023-06-10T10:43:34.819Z,20.87
2023-06-10T10:46:33.859Z,21.71
2023-06-10T10:49:11.929Z,22.85
2023-06-10T10:52:14.069Z,22.35
2023-06-10T10:55:04.086Z,21.61
2023-06-10T10:57:41.794Z,21.96
2023-06-10T11:00:17.808Z,22.71
2023-06-10T11:02:56.025Z,22.43
2023-06-10T11:05:43.046Z,21.96
2023-06-10T11:08:37.731Z,22.50
2023-06-10T11:11:32.441Z,22.43
2023-06-10T11:14:09.020Z,23.24
2023-06-10T11:16:58.343Z,23.00
2023-06-10T11:19:39.218Z,22.43
2023-06-10T11:22:11.762Z,22.37
2023-06-10T11:24:43.489Z,21.74
2023-06-10T11:27:28.941Z,21.55
2023-06-10T11:30:11.957Z,21.71
2023-06-10T11:32:48.596Z,22.92
2023-06-10T11:35:22.900Z,22.36
2023-06-10T11:38:05.166Z,22.31
2023-06-10T11:40:42.848Z,21.97
2023-06-10T11:43:32.057Z,21.80
2023-06-10T11:46:07.218Z,22.48
2023-06-10T11:48:49.796Z,22.20
2023-06-10T11:51:32.041Z,22.45
2023-06-10T11:54:07.061Z,21.82
2023-06-10T11:56:43.051Z,22.63
2023-06-10T11:59:18.347Z,22.94
2023-06-10T12:01:49.061Z,22.21
2023-06-10T12:04:22.045Z,22.65
2023-06-10T12:07:01.060Z,22.83
2023-06-10T12:10:12.100Z,22.15
2023-06-10T12:13:14.558Z,22.08
2023-06-10T12:15:49.462Z,22.38
2023-06-10T12:18:31.472Z,22.35
2023-06-10T12:21:24.420Z,22.14
2023-06-10T12:24:13.119Z,22.57
2023-06-10T12:27:03.216Z,22.17
2023-06-10T12:29:33.287Z,22.17
2023-06-10T12:32:08.708Z,22.20
2023-06-10T12:35:15.189Z,22.04
2023-06-10T12:38:17.284Z,21.77
2023-06-10T12:40:44.807Z,23.11
2023-06-10T12:43:13.264Z,22.27
2023-06-10T12:45:44.442Z,22.41
2023-06-10T12:48:18.475Z,21.52
2023-06-10T12:50:48.229Z,21.63
2023-06-10T12:53:15.954Z,22.02
2023-06-10T12:55:46.413Z,21.83
2023-06-10T12:58:15.115Z,21.61
2023-06-10T13:00:43.238Z,21.53
2023-06-10T13:03:11.551Z,21.96
2023-06-10T13:05:39.988Z,21.52
2023-06-10T13:08:08.613Z,21.97
2023-06-10T13:10:36.355Z,21.48
2023-06-10T13:13:06.906Z,21.30
2023-06-10T13:15:40.225Z,21.33
2023-06-10T13:18:10.807Z,21.80
2023-06-10T13:20:38.050Z,21.16
2023-06-10T13:23:05.814Z,21.09
2023-06-10T13:25:33.604Z,21.24
2023-06-10T13:28:02.181Z,21.72
2023-06-10T13:30:30.095Z,21.33
2023-06-10T13:32:58.041Z,21.55
2023-06-10T13:35:25.930Z,21.18
2023-06-10T13:37:53.711Z,21.67
2023-06-10T13:40:21.335Z,21.21
2023-06-10T13:42:52.040Z,21.32
2023-06-10T13:45:19.608Z,20.48
2023-06-10T13:47:47.495Z,20.70
2023-06-10T13:50:15.025Z,21.18
2023-06-10T13:52:42.783Z,21.16
2023-06-10T13:55:10.786Z,21.13
2023-06-10T13:57:38.936Z,21.22
2023-06-10T14:00:07.979Z,20.74
2023-06-10T14:02:36.258Z,20.68
2023-06-10T14:05:16.606Z,21.09
2023-06-10T14:07:59.211Z,20.81
2023-06-10T14:10:35.515Z,21.38
2023-06-10T14:13:07.491Z,22.03
2023-06-10T14:15:36.865Z,21.09
2023-06-10T14:21:45.550Z,20.87
2023-06-10T14:24:59.605Z,20.65
2023-06-10T14:27:33.171Z,20.53
2023-06-10T14:30:07.499Z,20.85
2023-06-10T14:35:47.520Z,21.17
2023-06-10T14:38:21.359Z,20.93
2023-06-10T14:41:04.586Z,20.74
2023-06-10T14:43:44.620Z,21.16
2023-06-10T14:46:23.837Z,20.91
2023-06-10T14:48:55.633Z,20.57
2023-06-10T14:51:29.886Z,20.68
2023-06-10T14:54:09.549Z,20.70
2023-06-10T14:56:42.387Z,20.67
2023-06-10T14:59:31.108Z,20.60
2023-06-10T15:02:12.205Z,20.43
2023-06-10T15:04:52.618Z,20.50
2023-06-10T15:07:27.539Z,20.58
2023-06-10T15:09:56.290Z,20.86
2023-06-10T15:12:26.638Z,21.50
2023-06-10T15:14:56.075Z,20.71
2023-06-10T15:17:24.958Z,20.82
2023-06-10T15:19:56.787Z,21.03
2023-06-10T15:22:25.286Z,20.95
2023-06-10T15:24:58.913Z,20.38
2023-06-10T15:27:36.305Z,20.78
2023-06-10T15:30:13.973Z,20.54
2023-06-10T15:33:03.956Z,21.06
2023-06-10T15:35:35.841Z,21.34
2023-06-10T15:38:05.350Z,20.73
2023-06-10T15:40:39.146Z,20.52
2023-06-10T15:43:08.266Z,20.56
2023-06-10T15:45:42.921Z,20.65
2023-06-10T15:48:12.107Z,20.56
2023-06-10T15:50:46.532Z,20.67
2023-06-10T15:53:20.752Z,20.51
2023-06-10T15:56:16.320Z,20.02
2023-06-10T15:58:55.334Z,20.24
2023-06-10T16:01:31.391Z,19.91
2023-06-10T16:04:07.755Z,20.28
2023-06-10T16:06:39.529Z,20.11
2023-06-10T16:09:24.535Z,19.89
2023-06-10T16:11:54.561Z,20.51
2023-06-10T16:14:25.986Z,19.97
2023-06-10T16:17:08.256Z,20.05
2023-06-10T16:20:00.443Z,19.91
2023-06-10T16:22:32.982Z,19.89
2023-06-10T16:25:02.817Z,19.61
2023-06-10T16:27:33.384Z,19.62
2023-06-10T16:30:01.355Z,20.12
2023-06-10T16:32:29.211Z,19.88
2023-06-10T16:34:57.250Z,19.41
2023-06-10T16:37:24.399Z,19.58
2023-06-10T16:39:53.032Z,19.30
2023-06-10T16:42:20.449Z,19.43
2023-06-10T16:44:48.186Z,19.38
2023-06-10T16:47:17.811Z,19.14
2023-06-10T16:49:50.434Z,19.07
2023-06-10T16:52:18.581Z,19.13
2023-06-10T16:54:46.828Z,19.16
2023-06-10T16:57:14.299Z,18.95
2023-06-10T16:59:42.355Z,19.13
2023-06-10T17:02:09.735Z,19.19
2023-06-10T17:04:38.207Z,19.07
2023-06-10T17:07:06.224Z,19.13
2023-06-10T17:09:33.988Z,19.09
2023-06-10T17:12:03.854Z,18.96
2023-06-10T17:15:12.984Z,18.83
2023-06-10T17:18:06.467Z,18.65
2023-06-10T17:20:34.618Z,18.79
2023-06-10T17:23:09.203Z,18.73
2023-06-10T17:25:38.714Z,18.37
2023-06-10T17:28:06.625Z,18.52
2023-06-10T17:30:34.283Z,18.34
2023-06-10T17:33:02.184Z,18.47
2023-06-10T17:35:29.965Z,18.28
2023-06-10T17:37:57.903Z,18.25
2023-06-10T17:40:25.527Z,18.27
2023-06-10T17:42:53.839Z,18.40
2023-06-10T17:45:22.221Z,18.15
2023-06-10T17:47:50.300Z,18.06
2023-06-10T17:50:19.985Z,18.10
2023-06-10T17:52:48.325Z,18.03
2023-06-10T17:55:16.712Z,17.96
2023-06-10T17:57:44.869Z,18.00
2023-06-10T18:00:19.075Z,17.98
2023-06-10T18:02:48.147Z,17.83
2023-06-10T18:05:17.124Z,17.78
2023-06-10T18:07:44.592Z,17.83
2023-06-10T18:10:12.527Z,17.83
2023-06-10T18:12:40.300Z,17.78
2023-06-10T18:15:08.982Z,17.67
2023-06-10T18:17:37.061Z,17.51
2023-06-10T18:20:05.729Z,17.55
2023-06-10T18:22:33.336Z,17.59
2023-06-10T18:25:06.003Z,17.46
2023-06-10T18:27:35.320Z,17.46
2023-06-10T18:30:03.590Z,17.70
2023-06-10T18:32:31.954Z,17.33
2023-06-10T18:34:59.953Z,17.24
2023-06-10T18:37:27.511Z,17.18
2023-06-10T18:39:55.851Z,17.31
2023-06-10T18:42:23.918Z,17.09
2023-06-10T18:44:52.021Z,17.22
2023-06-10T18:47:19.476Z,17.22
2023-06-10T18:49:47.313Z,16.92
2023-06-10T18:56:18.805Z,17.18
2023-06-10T18:58:55.688Z,16.97
2023-06-10T19:01:25.143Z,17.05
2023-06-10T19:03:53.469Z,16.82
2023-06-10T19:06:21.434Z,16.78
2023-06-10T19:08:48.993Z,16.78
2023-06-10T19:11:42.255Z,16.67
2023-06-10T19:14:11.249Z,16.52
2023-06-10T19:16:39.645Z,16.36
2023-06-10T19:19:08.638Z,16.22
2023-06-10T19:21:50.080Z,16.20
2023-06-10T19:25:05.337Z,15.90
2023-06-10T19:27:36.195Z,15.89
2023-06-10T19:30:05.266Z,16.13
2023-06-10T19:33:06.538Z,16.12
2023-06-10T19:35:35.271Z,15.89
2023-06-10T19:38:04.811Z,15.98
2023-06-10T19:40:32.033Z,16.01
2023-06-10T19:42:59.986Z,15.87
2023-06-10T19:45:27.587Z,15.73
2023-06-10T19:48:03.771Z,15.72
2023-06-10T19:50:37.142Z,15.83
2023-06-10T19:53:07.337Z,15.84
2023-06-10T19:55:38.491Z,15.58
2023-06-10T19:58:13.425Z,15.77
2023-06-10T20:00:42.559Z,15.43
2023-06-10T20:03:11.167Z,15.47
2023-06-10T20:05:43.646Z,15.48
2023-06-10T20:11:21.227Z,15.27
2023-06-10T20:14:11.515Z,15.47
2023-06-10T20:16:39.487Z,15.49
2023-06-10T20:19:07.263Z,15.50
2023-06-10T20:21:37.706Z,15.55
2023-06-10T20:24:10.719Z,15.23
2023-06-10T20:26:49.764Z,15.20
2023-06-10T20:29:21.728Z,15.55
2023-06-10T20:31:49.893Z,15.40
2023-06-10T20:34:17.784Z,15.35
2023-06-10T20:36:45.803Z,15.25
2023-06-10T20:39:13.412Z,15.12
2023-06-10T20:41:41.134Z,15.02
2023-06-10T20:44:08.795Z,15.13
2023-06-10T20:46:36.567Z,15.18
2023-06-10T20:49:04.233Z,15.22
2023-06-10T20:51:31.633Z,15.40
2023-06-10T20:54:01.052Z,15.14
2023-06-10T20:56:28.509Z,15.36
2023-06-10T20:58:56.542Z,15.27
2023-06-10T21:01:26.593Z,15.24
2023-06-10T21:03:54.586Z,15.30
2023-06-10T21:06:23.339Z,14.99
2023-06-10T21:08:52.626Z,15.06
2023-06-10T21:11:20.082Z,14.87
2023-06-10T21:13:48.855Z,14.97
2023-06-10T21:16:18.503Z,14.99
2023-06-10T21:18:48.555Z,15.23
2023-06-10T21:21:16.028Z,15.19
2023-06-10T21:23:43.835Z,15.08
2023-06-10T21:26:11.861Z,15.21
2023-06-10T21:28:39.344Z,14.84
2023-06-10T21:31:06.935Z,14.65
2023-06-10T21:33:34.987Z,14.67
2023-06-10T21:36:03.540Z,14.62
2023-06-10T21:38:40.619Z,14.66
2023-06-10T21:41:10.505Z,14.79
2023-06-10T21:43:42.110Z,14.50
2023-06-10T21:46:10.874Z,14.60
2023-06-10T21:48:43.013Z,14.57
2023-06-10T21:51:15.525Z,14.79
2023-06-10T21:53:47.603Z,14.52
2023-06-10T21:56:27.880Z,14.60
2023-06-10T21:59:10.910Z,14.52
2023-06-10T22:01:47.396Z,14.49
2023-06-10T22:04:32.984Z,14.38
2023-06-10T22:07:04.387Z,14.56
2023-06-10T22:09:35.422Z,14.40
2023-06-10T22:12:07.068Z,14.40
2023-06-10T22:14:37.469Z,14.37
2023-06-10T22:17:07.933Z,14.33
2023-06-10T22:19:40.558Z,14.20
2023-06-10T22:22:12.104Z,14.29
2023-06-10T22:24:49.341Z,14.19
2023-06-10T22:27:19.251Z,14.22
2023-06-10T22:29:49.240Z,14.17
2023-06-10T22:32:19.196Z,14.09
2023-06-10T22:34:57.227Z,14.15
2023-06-10T22:37:31.598Z,13.98
2023-06-10T22:40:05.703Z,14.17
2023-06-10T22:42:41.909Z,13.82
2023-06-10T22:45:11.709Z,13.93
2023-06-10T22:47:47.138Z,13.74
2023-06-10T22:50:20.912Z,13.60
2023-06-10T22:53:12.153Z,13.49
2023-06-10T22:55:43.872Z,13.51
2023-06-10T22:58:21.745Z,13.20
2023-06-10T23:00:54.500Z,13.41
2023-06-10T23:03:28.672Z,13.46
2023-06-10T23:06:02.031Z,13.24
2023-06-10T23:08:30.272Z,13.43
2023-06-10T23:10:59.565Z,13.17
2023-06-10T23:13:28.049Z,13.28
2023-06-10T23:15:57.945Z,13.10
2023-06-10T23:18:27.578Z,13.39
2023-06-10T23:20:57.694Z,13.47
2023-06-10T23:23:36.047Z,13.53
2023-06-10T23:26:05.714Z,13.31
2023-06-10T23:28:35.265Z,13.37
2023-06-10T23:31:06.707Z,13.27
2023-06-10T23:33:40.593Z,13.23
2023-06-10T23:36:14.670Z,13.03
2023-06-10T23:38:43.327Z,13.01
2023-06-10T23:41:14.017Z,12.84
2023-06-10T23:43:44.732Z,12.93
2023-06-10T23:46:26.916Z,12.77
2023-06-10T23:49:18.157Z,12.67
2023-06-10T23:51:52.683Z,12.67
2023-06-10T23:54:24.504Z,12.42
2023-06-10T23:56:58.673Z,12.69
2023-06-10T23:59:38.346Z,12.45
